DTTX/SFA METAR and TAF weather

Enter ICAO airport designator
Station Type Date Time Source
DTTX METAR 2019/05/25 09:00 UTC NOAA

DTTX 250900Z 05013KT 9999 SCT020 SCT030 22/14 Q1011 NOSIG


Station Type Date Time Source
DTTX Decoded METAR 2019/05/25 09:00 UTC NOAA

Sfax El-Maou, Tunisia (DTTX) 34-43N 010-41E 23M
May 25, 2019 - 05:00 AM EDT / 2019.05.25 0900 UTC
Wind: from the NE (050 degrees) at 15 MPH (13 KT):0
Visibility: greater than 7 mile(s):0
Sky conditions: partly cloudy
Temperature: 71 F (22 C)
Dew Point: 57 F (14 C)
Relative Humidity: 60%
Pressure (altimeter): 29.85 in. Hg (1011 hPa)
ob: DTTX 250900Z 05013KT 9999 SCT020 SCT030 22/14 Q1011 NOSIG
cycle: 9

Station Type Date Time Source
DTTX TAF 2019/05/25 06:47 UTC NOAA

TAF DTTX 250500Z 2506/2606 09015KT 9999 FEW020 PROB30
TEMPO 2510/2524 VRB15G27KT 4000 TS SHRA FEW026CB
BECMG 2512/2514 03014KT
BECMG 2522/2524 33018KT

Example: see airport list